sensor_id;sensor_type;location;lat;lon;timestamp;temperature;humidity
24410;DHT22;12543;53.364;-1.504;2022-11-14T00:00:19;12.10;99.90
24410;DHT22;12543;53.364;-1.504;2022-11-14T00:03:06;12.10;99.90
24410;DHT22;12543;53.364;-1.504;2022-11-14T00:05:53;12.10;99.90
24410;DHT22;12543;53.364;-1.504;2022-11-14T00:08:38;12.10;99.90
24410;DHT22;12543;53.364;-1.504;2022-11-14T00:11:24;12.10;99.90
24410;DHT22;12543;53.364;-1.504;2022-11-14T00:14:10;12.10;99.90
24410;DHT22;12543;53.364;-1.504;2022-11-14T00:16:56;12.10;99.90
24410;DHT22;12543;53.364;-1.504;2022-11-14T00:19:41;12.10;99.90
24410;DHT22;12543;53.364;-1.504;2022-11-14T00:22:27;12.10;99.90
24410;DHT22;12543;53.364;-1.504;2022-11-14T00:25:12;12.10;99.90
24410;DHT22;12543;53.364;-1.504;2022-11-14T00:27:58;12.10;99.90
24410;DHT22;12543;53.364;-1.504;2022-11-14T00:30:47;12.10;99.90
24410;DHT22;12543;53.364;-1.504;2022-11-14T00:33:33;12.10;99.90
24410;DHT22;12543;53.364;-1.504;2022-11-14T00:36:19;12.10;99.90
24410;DHT22;12543;53.364;-1.504;2022-11-14T00:39:04;12.10;99.90
24410;DHT22;12543;53.364;-1.504;2022-11-14T00:41:50;12.10;99.90
24410;DHT22;12543;53.364;-1.504;2022-11-14T00:44:36;12.10;99.90
24410;DHT22;12543;53.364;-1.504;2022-11-14T00:47:21;12.10;99.90
24410;DHT22;12543;53.364;-1.504;2022-11-14T00:50:08;12.10;99.90
24410;DHT22;12543;53.364;-1.504;2022-11-14T00:52:54;12.10;99.90
24410;DHT22;12543;53.364;-1.504;2022-11-14T00:55:41;12.10;99.90
24410;DHT22;12543;53.364;-1.504;2022-11-14T00:58:26;12.10;99.90
24410;DHT22;12543;53.364;-1.504;2022-11-14T01:01:12;12.00;99.90
24410;DHT22;12543;53.364;-1.504;2022-11-14T01:03:58;12.00;99.90
24410;DHT22;12543;53.364;-1.504;2022-11-14T01:06:43;12.00;99.90
24410;DHT22;12543;53.364;-1.504;2022-11-14T01:09:29;12.00;99.90
24410;DHT22;12543;53.364;-1.504;2022-11-14T01:12:15;12.00;99.90
24410;DHT22;12543;53.364;-1.504;2022-11-14T01:15:00;12.00;99.90
24410;DHT22;12543;53.364;-1.504;2022-11-14T01:17:46;12.00;99.90
24410;DHT22;12543;53.364;-1.504;2022-11-14T01:20:31;12.00;99.90
24410;DHT22;12543;53.364;-1.504;2022-11-14T01:23:17;12.00;99.90
24410;DHT22;12543;53.364;-1.504;2022-11-14T01:26:07;12.00;99.90
24410;DHT22;12543;53.364;-1.504;2022-11-14T01:28:53;12.00;99.90
24410;DHT22;12543;53.364;-1.504;2022-11-14T01:31:38;12.00;99.90
24410;DHT22;12543;53.364;-1.504;2022-11-14T01:34:24;12.00;99.90
24410;DHT22;12543;53.364;-1.504;2022-11-14T01:37:10;12.00;99.90
24410;DHT22;12543;53.364;-1.504;2022-11-14T01:39:56;11.90;99.90
24410;DHT22;12543;53.364;-1.504;2022-11-14T01:42:42;12.00;99.90
24410;DHT22;12543;53.364;-1.504;2022-11-14T01:46:00;11.90;99.90
24410;DHT22;12543;53.364;-1.504;2022-11-14T01:51:49;12.00;99.90
24410;DHT22;12543;53.364;-1.504;2022-11-14T01:54:38;11.90;99.90
24410;DHT22;12543;53.364;-1.504;2022-11-14T01:57:36;11.90;99.90
24410;DHT22;12543;53.364;-1.504;2022-11-14T02:00:23;11.90;99.90
24410;DHT22;12543;53.364;-1.504;2022-11-14T02:03:11;11.90;99.90
24410;DHT22;12543;53.364;-1.504;2022-11-14T02:05:57;11.90;99.90
24410;DHT22;12543;53.364;-1.504;2022-11-14T02:08:45;11.90;99.90
24410;DHT22;12543;53.364;-1.504;2022-11-14T02:11:34;11.90;99.90
24410;DHT22;12543;53.364;-1.504;2022-11-14T02:14:21;11.90;99.90
24410;DHT22;12543;53.364;-1.504;2022-11-14T02:17:07;11.90;99.90
24410;DHT22;12543;53.364;-1.504;2022-11-14T02:22:58;11.90;99.90
24410;DHT22;12543;53.364;-1.504;2022-11-14T02:25:43;11.90;99.90
24410;DHT22;12543;53.364;-1.504;2022-11-14T02:28:29;11.90;99.90
24410;DHT22;12543;53.364;-1.504;2022-11-14T02:31:15;11.90;99.90
24410;DHT22;12543;53.364;-1.504;2022-11-14T02:34:00;11.90;99.90
24410;DHT22;12543;53.364;-1.504;2022-11-14T02:36:46;11.80;99.90
24410;DHT22;12543;53.364;-1.504;2022-11-14T02:39:31;11.80;99.90
24410;DHT22;12543;53.364;-1.504;2022-11-14T02:42:17;11.80;99.90
24410;DHT22;12543;53.364;-1.504;2022-11-14T02:45:03;11.80;99.90
24410;DHT22;12543;53.364;-1.504;2022-11-14T02:47:48;11.80;99.90
24410;DHT22;12543;53.364;-1.504;2022-11-14T02:50:34;11.80;99.90
24410;DHT22;12543;53.364;-1.504;2022-11-14T02:53:19;11.70;99.90
24410;DHT22;12543;53.364;-1.504;2022-11-14T02:56:05;11.80;99.90
24410;DHT22;12543;53.364;-1.504;2022-11-14T02:58:50;11.70;99.90
24410;DHT22;12543;53.364;-1.504;2022-11-14T03:01:36;11.70;99.90
24410;DHT22;12543;53.364;-1.504;2022-11-14T03:04:21;11.70;99.90
24410;DHT22;12543;53.364;-1.504;2022-11-14T03:07:07;11.70;99.90
24410;DHT22;12543;53.364;-1.504;2022-11-14T03:09:53;11.70;99.90
24410;DHT22;12543;53.364;-1.504;2022-11-14T03:12:39;11.70;99.90
24410;DHT22;12543;53.364;-1.504;2022-11-14T03:15:24;11.70;99.90
24410;DHT22;12543;53.364;-1.504;2022-11-14T03:18:10;11.70;99.90
24410;DHT22;12543;53.364;-1.504;2022-11-14T03:20:55;11.70;99.90
24410;DHT22;12543;53.364;-1.504;2022-11-14T03:23:42;11.70;99.90
24410;DHT22;12543;53.364;-1.504;2022-11-14T03:26:27;11.70;99.90
24410;DHT22;12543;53.364;-1.504;2022-11-14T03:29:12;11.70;99.90
24410;DHT22;12543;53.364;-1.504;2022-11-14T03:31:58;11.70;99.90
24410;DHT22;12543;53.364;-1.504;2022-11-14T03:34:44;11.70;99.90
24410;DHT22;12543;53.364;-1.504;2022-11-14T03:37:29;11.70;99.90
24410;DHT22;12543;53.364;-1.504;2022-11-14T03:40:15;11.60;99.90
24410;DHT22;12543;53.364;-1.504;2022-11-14T03:43:01;11.60;99.90
24410;DHT22;12543;53.364;-1.504;2022-11-14T03:45:47;11.60;99.90
24410;DHT22;12543;53.364;-1.504;2022-11-14T03:48:32;11.60;99.90
24410;DHT22;12543;53.364;-1.504;2022-11-14T03:51:18;11.60;99.90
24410;DHT22;12543;53.364;-1.504;2022-11-14T03:54:03;11.60;99.90
24410;DHT22;12543;53.364;-1.504;2022-11-14T03:56:49;11.60;99.90
24410;DHT22;12543;53.364;-1.504;2022-11-14T03:59:34;11.60;99.90
24410;DHT22;12543;53.364;-1.504;2022-11-14T04:02:21;11.50;99.90
24410;DHT22;12543;53.364;-1.504;2022-11-14T04:05:07;11.50;99.90
24410;DHT22;12543;53.364;-1.504;2022-11-14T04:07:53;11.50;99.90
24410;DHT22;12543;53.364;-1.504;2022-11-14T04:10:38;11.50;99.90
24410;DHT22;12543;53.364;-1.504;2022-11-14T04:13:25;11.40;99.90
24410;DHT22;12543;53.364;-1.504;2022-11-14T04:16:10;11.40;99.90
24410;DHT22;12543;53.364;-1.504;2022-11-14T04:18:56;11.50;99.90
24410;DHT22;12543;53.364;-1.504;2022-11-14T04:21:42;11.40;99.90
24410;DHT22;12543;53.364;-1.504;2022-11-14T04:24:27;11.40;99.90
24410;DHT22;12543;53.364;-1.504;2022-11-14T04:27:13;11.40;99.90
24410;DHT22;12543;53.364;-1.504;2022-11-14T04:29:59;11.40;99.90
24410;DHT22;12543;53.364;-1.504;2022-11-14T04:32:45;11.40;99.90
24410;DHT22;12543;53.364;-1.504;2022-11-14T04:35:32;11.40;99.90
24410;DHT22;12543;53.364;-1.504;2022-11-14T04:38:18;11.40;99.90
24410;DHT22;12543;53.364;-1.504;2022-11-14T04:41:03;11.40;99.90
24410;DHT22;12543;53.364;-1.504;2022-11-14T04:43:49;11.40;99.90
24410;DHT22;12543;53.364;-1.504;2022-11-14T04:46:35;11.30;99.90
24410;DHT22;12543;53.364;-1.504;2022-11-14T04:49:21;11.30;99.90
24410;DHT22;12543;53.364;-1.504;2022-11-14T04:52:07;11.30;99.90
24410;DHT22;12543;53.364;-1.504;2022-11-14T04:54:52;11.30;99.90
24410;DHT22;12543;53.364;-1.504;2022-11-14T04:57:38;11.30;99.90
24410;DHT22;12543;53.364;-1.504;2022-11-14T05:00:24;11.20;99.90
24410;DHT22;12543;53.364;-1.504;2022-11-14T05:03:10;11.20;99.90
24410;DHT22;12543;53.364;-1.504;2022-11-14T05:05:59;11.20;99.90
24410;DHT22;12543;53.364;-1.504;2022-11-14T05:08:45;11.10;99.90
24410;DHT22;12543;53.364;-1.504;2022-11-14T05:11:30;11.10;99.90
24410;DHT22;12543;53.364;-1.504;2022-11-14T05:14:16;11.10;99.90
24410;DHT22;12543;53.364;-1.504;2022-11-14T05:17:01;11.20;99.90
24410;DHT22;12543;53.364;-1.504;2022-11-14T05:19:47;11.10;99.90
24410;DHT22;12543;53.364;-1.504;2022-11-14T05:22:32;11.10;99.90
24410;DHT22;12543;53.364;-1.504;2022-11-14T05:25:18;11.10;99.90
24410;DHT22;12543;53.364;-1.504;2022-11-14T05:28:03;11.10;99.90
24410;DHT22;12543;53.364;-1.504;2022-11-14T05:30:49;11.10;99.90
24410;DHT22;12543;53.364;-1.504;2022-11-14T05:33:35;11.10;99.90
24410;DHT22;12543;53.364;-1.504;2022-11-14T05:36:20;11.10;99.90
24410;DHT22;12543;53.364;-1.504;2022-11-14T05:39:06;11.10;99.90
24410;DHT22;12543;53.364;-1.504;2022-11-14T05:41:51;11.10;99.90
24410;DHT22;12543;53.364;-1.504;2022-11-14T05:44:37;11.00;99.90
24410;DHT22;12543;53.364;-1.504;2022-11-14T05:47:22;11.00;99.90
24410;DHT22;12543;53.364;-1.504;2022-11-14T05:50:08;11.00;99.90
24410;DHT22;12543;53.364;-1.504;2022-11-14T05:52:55;11.00;99.90
24410;DHT22;12543;53.364;-1.504;2022-11-14T05:55:40;11.00;99.90
24410;DHT22;12543;53.364;-1.504;2022-11-14T05:58:26;11.00;99.90
24410;DHT22;12543;53.364;-1.504;2022-11-14T06:01:15;11.00;99.90
24410;DHT22;12543;53.364;-1.504;2022-11-14T06:04:01;11.00;99.90
24410;DHT22;12543;53.364;-1.504;2022-11-14T06:06:49;10.90;99.90
24410;DHT22;12543;53.364;-1.504;2022-11-14T06:09:35;10.90;99.90
24410;DHT22;12543;53.364;-1.504;2022-11-14T06:12:20;10.90;99.90
24410;DHT22;12543;53.364;-1.504;2022-11-14T06:15:06;10.90;99.90
24410;DHT22;12543;53.364;-1.504;2022-11-14T06:17:52;10.90;99.90
24410;DHT22;12543;53.364;-1.504;2022-11-14T06:20:38;10.80;99.90
24410;DHT22;12543;53.364;-1.504;2022-11-14T06:23:23;10.80;99.90
24410;DHT22;12543;53.364;-1.504;2022-11-14T06:26:25;10.80;99.90
24410;DHT22;12543;53.364;-1.504;2022-11-14T06:29:11;10.80;99.90
24410;DHT22;12543;53.364;-1.504;2022-11-14T06:31:57;10.80;99.90
24410;DHT22;12543;53.364;-1.504;2022-11-14T06:34:42;10.80;99.90
24410;DHT22;12543;53.364;-1.504;2022-11-14T06:37:28;10.80;99.90
24410;DHT22;12543;53.364;-1.504;2022-11-14T06:40:17;10.80;99.90
24410;DHT22;12543;53.364;-1.504;2022-11-14T06:43:03;10.70;99.90
24410;DHT22;12543;53.364;-1.504;2022-11-14T06:45:48;10.80;99.90
24410;DHT22;12543;53.364;-1.504;2022-11-14T06:48:34;10.70;99.90
24410;DHT22;12543;53.364;-1.504;2022-11-14T06:51:20;10.70;99.90
24410;DHT22;12543;53.364;-1.504;2022-11-14T06:54:05;10.70;99.90
24410;DHT22;12543;53.364;-1.504;2022-11-14T06:56:50;10.70;99.90
24410;DHT22;12543;53.364;-1.504;2022-11-14T06:59:36;10.60;99.90
24410;DHT22;12543;53.364;-1.504;2022-11-14T07:02:21;10.70;99.90
24410;DHT22;12543;53.364;-1.504;2022-11-14T07:05:07;10.70;99.90
24410;DHT22;12543;53.364;-1.504;2022-11-14T07:07:52;10.70;99.90
24410;DHT22;12543;53.364;-1.504;2022-11-14T07:10:39;10.60;99.90
24410;DHT22;12543;53.364;-1.504;2022-11-14T07:13:24;10.60;99.90
24410;DHT22;12543;53.364;-1.504;2022-11-14T07:16:10;10.60;99.90
24410;DHT22;12543;53.364;-1.504;2022-11-14T07:18:59;10.60;99.90
24410;DHT22;12543;53.364;-1.504;2022-11-14T07:21:44;10.60;99.90
24410;DHT22;12543;53.364;-1.504;2022-11-14T07:24:30;10.60;99.90
24410;DHT22;12543;53.364;-1.504;2022-11-14T07:27:15;10.60;99.90
24410;DHT22;12543;53.364;-1.504;2022-11-14T07:30:01;10.60;99.90
24410;DHT22;12543;53.364;-1.504;2022-11-14T07:32:54;10.60;99.90
24410;DHT22;12543;53.364;-1.504;2022-11-14T07:35:39;10.60;99.90
24410;DHT22;12543;53.364;-1.504;2022-11-14T07:38:25;10.50;99.90
24410;DHT22;12543;53.364;-1.504;2022-11-14T07:41:13;10.50;99.90
24410;DHT22;12543;53.364;-1.504;2022-11-14T07:43:58;10.50;99.90
24410;DHT22;12543;53.364;-1.504;2022-11-14T07:46:44;10.50;99.90
24410;DHT22;12543;53.364;-1.504;2022-11-14T07:49:29;10.50;99.90
24410;DHT22;12543;53.364;-1.504;2022-11-14T07:52:15;10.50;99.90
24410;DHT22;12543;53.364;-1.504;2022-11-14T07:55:01;10.50;99.90
24410;DHT22;12543;53.364;-1.504;2022-11-14T07:57:47;10.50;99.90
24410;DHT22;12543;53.364;-1.504;2022-11-14T08:00:34;10.60;99.90
24410;DHT22;12543;53.364;-1.504;2022-11-14T08:03:19;10.60;99.90
24410;DHT22;12543;53.364;-1.504;2022-11-14T08:06:10;10.60;99.90
24410;DHT22;12543;53.364;-1.504;2022-11-14T08:08:56;10.60;99.90
24410;DHT22;12543;53.364;-1.504;2022-11-14T08:11:42;10.60;99.90
24410;DHT22;12543;53.364;-1.504;2022-11-14T08:14:34;10.60;99.90
24410;DHT22;12543;53.364;-1.504;2022-11-14T08:17:20;10.70;99.90
24410;DHT22;12543;53.364;-1.504;2022-11-14T08:20:07;10.60;99.90
24410;DHT22;12543;53.364;-1.504;2022-11-14T08:22:53;10.60;99.90
24410;DHT22;12543;53.364;-1.504;2022-11-14T08:25:40;10.70;99.90
24410;DHT22;12543;53.364;-1.504;2022-11-14T08:28:26;10.70;99.90
24410;DHT22;12543;53.364;-1.504;2022-11-14T08:31:12;10.70;99.90
24410;DHT22;12543;53.364;-1.504;2022-11-14T08:33:58;10.70;99.90
24410;DHT22;12543;53.364;-1.504;2022-11-14T08:36:44;10.70;99.90
24410;DHT22;12543;53.364;-1.504;2022-11-14T08:39:29;10.70;99.90
24410;DHT22;12543;53.364;-1.504;2022-11-14T08:42:15;10.70;99.90
24410;DHT22;12543;53.364;-1.504;2022-11-14T08:45:00;10.70;99.90
24410;DHT22;12543;53.364;-1.504;2022-11-14T08:47:52;10.70;99.90
24410;DHT22;12543;53.364;-1.504;2022-11-14T08:50:38;10.70;99.90
24410;DHT22;12543;53.364;-1.504;2022-11-14T08:53:23;10.70;99.90
24410;DHT22;12543;53.364;-1.504;2022-11-14T08:56:09;10.70;99.90
24410;DHT22;12543;53.364;-1.504;2022-11-14T08:58:55;10.70;99.90
24410;DHT22;12543;53.364;-1.504;2022-11-14T09:01:41;10.70;99.90
24410;DHT22;12543;53.364;-1.504;2022-11-14T09:04:27;10.70;99.90
24410;DHT22;12543;53.364;-1.504;2022-11-14T09:07:13;10.70;99.90
24410;DHT22;12543;53.364;-1.504;2022-11-14T09:09:58;10.80;99.90
24410;DHT22;12543;53.364;-1.504;2022-11-14T09:12:44;10.80;99.90
24410;DHT22;12543;53.364;-1.504;2022-11-14T09:15:30;10.80;99.90
24410;DHT22;12543;53.364;-1.504;2022-11-14T09:18:15;10.80;99.90
24410;DHT22;12543;53.364;-1.504;2022-11-14T09:21:07;10.80;99.90
24410;DHT22;12543;53.364;-1.504;2022-11-14T09:23:52;10.80;99.90
24410;DHT22;12543;53.364;-1.504;2022-11-14T09:26:44;10.90;99.90
24410;DHT22;12543;53.364;-1.504;2022-11-14T09:29:30;10.90;99.90
24410;DHT22;12543;53.364;-1.504;2022-11-14T09:32:16;10.90;99.90
24410;DHT22;12543;53.364;-1.504;2022-11-14T09:35:01;10.90;99.90
24410;DHT22;12543;53.364;-1.504;2022-11-14T09:37:47;10.90;99.90
24410;DHT22;12543;53.364;-1.504;2022-11-14T09:46:44;11.00;99.90
24410;DHT22;12543;53.364;-1.504;2022-11-14T09:49:37;11.00;99.90
24410;DHT22;12543;53.364;-1.504;2022-11-14T09:52:56;11.00;99.90
24410;DHT22;12543;53.364;-1.504;2022-11-14T09:55:42;11.00;99.90
24410;DHT22;12543;53.364;-1.504;2022-11-14T09:58:28;11.00;99.90
24410;DHT22;12543;53.364;-1.504;2022-11-14T10:11:04;11.10;99.90
24410;DHT22;12543;53.364;-1.504;2022-11-14T10:20:33;11.10;99.90
24410;DHT22;12543;53.364;-1.504;2022-11-14T10:26:26;11.20;99.90
24410;DHT22;12543;53.364;-1.504;2022-11-14T10:36:26;11.20;99.90
24410;DHT22;12543;53.364;-1.504;2022-11-14T10:41:34;11.20;99.90
24410;DHT22;12543;53.364;-1.504;2022-11-14T10:45:21;11.20;99.90
24410;DHT22;12543;53.364;-1.504;2022-11-14T10:48:09;11.20;99.90
24410;DHT22;12543;53.364;-1.504;2022-11-14T10:50:58;11.20;99.90
24410;DHT22;12543;53.364;-1.504;2022-11-14T10:53:57;11.20;99.90
24410;DHT22;12543;53.364;-1.504;2022-11-14T10:56:50;11.30;99.90
24410;DHT22;12543;53.364;-1.504;2022-11-14T10:59:36;11.30;99.90
24410;DHT22;12543;53.364;-1.504;2022-11-14T11:02:21;11.30;99.90
24410;DHT22;12543;53.364;-1.504;2022-11-14T11:05:15;11.30;99.90
24410;DHT22;12543;53.364;-1.504;2022-11-14T11:08:02;11.30;99.90
24410;DHT22;12543;53.364;-1.504;2022-11-14T11:11:27;11.30;99.90
24410;DHT22;12543;53.364;-1.504;2022-11-14T11:14:17;11.40;99.90
24410;DHT22;12543;53.364;-1.504;2022-11-14T11:17:17;11.30;99.90
24410;DHT22;12543;53.364;-1.504;2022-11-14T11:20:35;11.40;99.90
24410;DHT22;12543;53.364;-1.504;2022-11-14T11:23:24;11.40;99.90
24410;DHT22;12543;53.364;-1.504;2022-11-14T11:31:56;11.40;99.90
24410;DHT22;12543;53.364;-1.504;2022-11-14T11:34:42;11.40;99.90
24410;DHT22;12543;53.364;-1.504;2022-11-14T11:37:53;11.40;99.90
24410;DHT22;12543;53.364;-1.504;2022-11-14T11:40:42;11.40;99.90
24410;DHT22;12543;53.364;-1.504;2022-11-14T11:43:36;11.40;99.90
24410;DHT22;12543;53.364;-1.504;2022-11-14T11:55:32;11.50;99.90
24410;DHT22;12543;53.364;-1.504;2022-11-14T12:01:13;11.50;99.90
24410;DHT22;12543;53.364;-1.504;2022-11-14T12:03:59;11.50;99.90
24410;DHT22;12543;53.364;-1.504;2022-11-14T12:06:56;11.50;99.90
24410;DHT22;12543;53.364;-1.504;2022-11-14T12:09:42;11.50;99.90
24410;DHT22;12543;53.364;-1.504;2022-11-14T12:30:36;11.40;99.90
24410;DHT22;12543;53.364;-1.504;2022-11-14T12:36:12;11.40;99.90
24410;DHT22;12543;53.364;-1.504;2022-11-14T12:38:59;11.40;99.90
24410;DHT22;12543;53.364;-1.504;2022-11-14T12:41:45;11.50;99.90
24410;DHT22;12543;53.364;-1.504;2022-11-14T12:44:33;11.50;99.90
24410;DHT22;12543;53.364;-1.504;2022-11-14T12:47:26;11.50;99.90
24410;DHT22;12543;53.364;-1.504;2022-11-14T12:50:30;11.50;99.90
24410;DHT22;12543;53.364;-1.504;2022-11-14T12:59:21;11.50;99.90
24410;DHT22;12543;53.364;-1.504;2022-11-14T13:11:47;11.50;99.90
24410;DHT22;12543;53.364;-1.504;2022-11-14T13:14:55;11.50;99.90
24410;DHT22;12543;53.364;-1.504;2022-11-14T13:18:18;11.40;99.90
24410;DHT22;12543;53.364;-1.504;2022-11-14T13:21:25;11.50;99.90
24410;DHT22;12543;53.364;-1.504;2022-11-14T13:27:46;11.40;99.90
24410;DHT22;12543;53.364;-1.504;2022-11-14T13:34:26;11.40;99.90
24410;DHT22;12543;53.364;-1.504;2022-11-14T13:40:10;11.40;99.90
24410;DHT22;12543;53.364;-1.504;2022-11-14T13:43:21;11.40;99.90
24410;DHT22;12543;53.364;-1.504;2022-11-14T13:46:28;11.40;99.90
24410;DHT22;12543;53.364;-1.504;2022-11-14T13:52:20;11.40;99.90
24410;DHT22;12543;53.364;-1.504;2022-11-14T13:55:16;11.40;99.90
24410;DHT22;12543;53.364;-1.504;2022-11-14T14:01:17;11.40;99.90
24410;DHT22;12543;53.364;-1.504;2022-11-14T14:04:39;11.50;99.90
24410;DHT22;12543;53.364;-1.504;2022-11-14T14:07:56;11.50;99.90
24410;DHT22;12543;53.364;-1.504;2022-11-14T14:17:42;11.50;99.90
24410;DHT22;12543;53.364;-1.504;2022-11-14T14:30:07;11.50;99.90
24410;DHT22;12543;53.364;-1.504;2022-11-14T14:35:53;11.50;99.90
24410;DHT22;12543;53.364;-1.504;2022-11-14T14:38:38;11.50;99.90
24410;DHT22;12543;53.364;-1.504;2022-11-14T14:41:25;11.50;99.90
24410;DHT22;12543;53.364;-1.504;2022-11-14T14:44:25;11.60;99.90
24410;DHT22;12543;53.364;-1.504;2022-11-14T14:47:16;11.60;99.90
24410;DHT22;12543;53.364;-1.504;2022-11-14T14:50:06;11.60;99.90
24410;DHT22;12543;53.364;-1.504;2022-11-14T14:52:57;11.60;99.90
24410;DHT22;12543;53.364;-1.504;2022-11-14T14:58:38;11.60;99.90
24410;DHT22;12543;53.364;-1.504;2022-11-14T15:01:31;11.70;99.90
24410;DHT22;12543;53.364;-1.504;2022-11-14T15:04:20;11.70;99.90
24410;DHT22;12543;53.364;-1.504;2022-11-14T15:07:20;11.70;99.90
24410;DHT22;12543;53.364;-1.504;2022-11-14T15:10:07;11.70;99.90
24410;DHT22;12543;53.364;-1.504;2022-11-14T15:12:52;11.70;99.90
24410;DHT22;12543;53.364;-1.504;2022-11-14T15:15:38;11.70;99.90
24410;DHT22;12543;53.364;-1.504;2022-11-14T15:18:31;11.70;99.90
24410;DHT22;12543;53.364;-1.504;2022-11-14T15:24:18;11.70;99.90
24410;DHT22;12543;53.364;-1.504;2022-11-14T15:27:12;11.70;99.90
24410;DHT22;12543;53.364;-1.504;2022-11-14T15:30:02;11.70;99.90
24410;DHT22;12543;53.364;-1.504;2022-11-14T15:32:53;11.60;99.90
24410;DHT22;12543;53.364;-1.504;2022-11-14T15:35:39;11.60;99.90
24410;DHT22;12543;53.364;-1.504;2022-11-14T15:38:25;11.50;99.90
24410;DHT22;12543;53.364;-1.504;2022-11-14T15:41:30;11.50;99.90
24410;DHT22;12543;53.364;-1.504;2022-11-14T15:44:30;11.50;99.90
24410;DHT22;12543;53.364;-1.504;2022-11-14T15:47:27;11.50;99.90
24410;DHT22;12543;53.364;-1.504;2022-11-14T15:53:04;11.50;99.90
24410;DHT22;12543;53.364;-1.504;2022-11-14T15:55:50;11.50;99.90
24410;DHT22;12543;53.364;-1.504;2022-11-14T15:58:36;11.40;99.90
24410;DHT22;12543;53.364;-1.504;2022-11-14T16:01:23;11.40;99.90
24410;DHT22;12543;53.364;-1.504;2022-11-14T16:04:30;11.40;99.90
24410;DHT22;12543;53.364;-1.504;2022-11-14T16:07:17;11.40;99.90
24410;DHT22;12543;53.364;-1.504;2022-11-14T16:10:03;11.40;99.90
24410;DHT22;12543;53.364;-1.504;2022-11-14T16:12:50;11.40;99.90
24410;DHT22;12543;53.364;-1.504;2022-11-14T16:15:37;11.30;99.90
24410;DHT22;12543;53.364;-1.504;2022-11-14T16:18:23;11.30;99.90
24410;DHT22;12543;53.364;-1.504;2022-11-14T16:21:12;11.30;99.90
24410;DHT22;12543;53.364;-1.504;2022-11-14T16:24:00;11.30;99.90
24410;DHT22;12543;53.364;-1.504;2022-11-14T16:26:46;11.30;99.90
24410;DHT22;12543;53.364;-1.504;2022-11-14T16:29:31;11.30;99.90
24410;DHT22;12543;53.364;-1.504;2022-11-14T16:32:17;11.30;99.90
24410;DHT22;12543;53.364;-1.504;2022-11-14T16:35:03;11.30;99.90
24410;DHT22;12543;53.364;-1.504;2022-11-14T16:37:49;11.30;99.90
24410;DHT22;12543;53.364;-1.504;2022-11-14T16:40:35;11.30;99.90
24410;DHT22;12543;53.364;-1.504;2022-11-14T16:43:21;11.30;99.90
24410;DHT22;12543;53.364;-1.504;2022-11-14T16:46:08;11.30;99.90
24410;DHT22;12543;53.364;-1.504;2022-11-14T16:48:53;11.30;99.90
24410;DHT22;12543;53.364;-1.504;2022-11-14T16:51:41;11.40;99.90
24410;DHT22;12543;53.364;-1.504;2022-11-14T16:54:35;11.40;99.90
24410;DHT22;12543;53.364;-1.504;2022-11-14T16:57:20;11.40;99.90
24410;DHT22;12543;53.364;-1.504;2022-11-14T17:00:09;11.40;99.90
24410;DHT22;12543;53.364;-1.504;2022-11-14T17:02:55;11.40;99.90
24410;DHT22;12543;53.364;-1.504;2022-11-14T17:05:45;11.40;99.90
24410;DHT22;12543;53.364;-1.504;2022-11-14T17:08:30;11.40;99.90
24410;DHT22;12543;53.364;-1.504;2022-11-14T17:11:16;11.40;99.90
24410;DHT22;12543;53.364;-1.504;2022-11-14T17:14:02;11.50;99.90
24410;DHT22;12543;53.364;-1.504;2022-11-14T17:16:47;11.40;99.90
24410;DHT22;12543;53.364;-1.504;2022-11-14T17:19:33;11.50;99.90
24410;DHT22;12543;53.364;-1.504;2022-11-14T17:22:18;11.40;99.90
24410;DHT22;12543;53.364;-1.504;2022-11-14T17:25:04;11.50;99.90
24410;DHT22;12543;53.364;-1.504;2022-11-14T17:27:50;11.40;99.90
24410;DHT22;12543;53.364;-1.504;2022-11-14T17:30:40;11.40;99.90
24410;DHT22;12543;53.364;-1.504;2022-11-14T17:33:26;11.40;99.90
24410;DHT22;12543;53.364;-1.504;2022-11-14T17:36:12;11.50;99.90
24410;DHT22;12543;53.364;-1.504;2022-11-14T17:38:58;11.50;99.90
24410;DHT22;12543;53.364;-1.504;2022-11-14T17:41:43;11.50;99.90
24410;DHT22;12543;53.364;-1.504;2022-11-14T17:44:29;11.50;99.90
24410;DHT22;12543;53.364;-1.504;2022-11-14T17:47:14;11.50;99.90
24410;DHT22;12543;53.364;-1.504;2022-11-14T17:50:00;11.50;99.90
24410;DHT22;12543;53.364;-1.504;2022-11-14T17:52:45;11.50;99.90
24410;DHT22;12543;53.364;-1.504;2022-11-14T17:55:31;11.50;99.90
24410;DHT22;12543;53.364;-1.504;2022-11-14T17:58:16;11.50;99.90
24410;DHT22;12543;53.364;-1.504;2022-11-14T18:01:11;11.50;99.90
24410;DHT22;12543;53.364;-1.504;2022-11-14T18:03:57;11.50;99.90
24410;DHT22;12543;53.364;-1.504;2022-11-14T18:06:50;11.50;99.90
24410;DHT22;12543;53.364;-1.504;2022-11-14T18:09:36;11.50;99.90
24410;DHT22;12543;53.364;-1.504;2022-11-14T18:12:21;11.50;99.90
24410;DHT22;12543;53.364;-1.504;2022-11-14T18:15:07;11.50;99.90
24410;DHT22;12543;53.364;-1.504;2022-11-14T18:17:53;11.50;99.90
24410;DHT22;12543;53.364;-1.504;2022-11-14T18:20:38;11.50;99.90
24410;DHT22;12543;53.364;-1.504;2022-11-14T18:23:24;11.50;99.90
24410;DHT22;12543;53.364;-1.504;2022-11-14T18:26:17;11.50;99.90
24410;DHT22;12543;53.364;-1.504;2022-11-14T18:29:03;11.50;99.90
24410;DHT22;12543;53.364;-1.504;2022-11-14T18:31:48;11.50;99.90
24410;DHT22;12543;53.364;-1.504;2022-11-14T18:34:34;11.50;99.90
24410;DHT22;12543;53.364;-1.504;2022-11-14T18:37:25;11.50;99.90
24410;DHT22;12543;53.364;-1.504;2022-11-14T18:40:10;11.50;99.90
24410;DHT22;12543;53.364;-1.504;2022-11-14T18:43:00;11.50;99.90
24410;DHT22;12543;53.364;-1.504;2022-11-14T18:45:46;11.50;99.90
24410;DHT22;12543;53.364;-1.504;2022-11-14T18:48:32;11.50;99.90
24410;DHT22;12543;53.364;-1.504;2022-11-14T18:51:20;11.50;99.90
24410;DHT22;12543;53.364;-1.504;2022-11-14T18:54:11;11.50;99.90
24410;DHT22;12543;53.364;-1.504;2022-11-14T18:56:57;11.50;99.90
24410;DHT22;12543;53.364;-1.504;2022-11-14T18:59:42;11.40;99.90
24410;DHT22;12543;53.364;-1.504;2022-11-14T19:02:28;11.50;99.90
24410;DHT22;12543;53.364;-1.504;2022-11-14T19:05:13;11.50;99.90
24410;DHT22;12543;53.364;-1.504;2022-11-14T19:07:59;11.40;99.90
24410;DHT22;12543;53.364;-1.504;2022-11-14T19:41:20;11.40;99.90
24410;DHT22;12543;53.364;-1.504;2022-11-14T19:43:50;11.40;99.90
24410;DHT22;12543;53.364;-1.504;2022-11-14T19:46:35;11.40;99.90
24410;DHT22;12543;53.364;-1.504;2022-11-14T19:49:21;11.40;99.90
24410;DHT22;12543;53.364;-1.504;2022-11-14T19:52:06;11.40;99.90
24410;DHT22;12543;53.364;-1.504;2022-11-14T19:54:52;11.40;99.90
24410;DHT22;12543;53.364;-1.504;2022-11-14T19:57:38;11.40;99.90
24410;DHT22;12543;53.364;-1.504;2022-11-14T20:00:24;11.40;99.90
24410;DHT22;12543;53.364;-1.504;2022-11-14T20:03:10;11.40;99.90
24410;DHT22;12543;53.364;-1.504;2022-11-14T20:05:56;11.40;99.90
24410;DHT22;12543;53.364;-1.504;2022-11-14T20:08:42;11.40;99.90
24410;DHT22;12543;53.364;-1.504;2022-11-14T20:11:28;11.40;99.90
24410;DHT22;12543;53.364;-1.504;2022-11-14T20:14:15;11.40;99.90